Etusivu
METAR-TAF:

METAR-TAF

Lentoasemat :

Port of Spain, Trinidad, Trinidad ja Tobago

Leveyspiiri: 10-37N, Pituuspiiri: 061-21W, korkeus merenpinnasta: 12 m

Tämänhetkinen sää

Tämä raportti tehtiin 11 minuuttia sitten, kello 05.00 UTC
Tuuli 11 kn idästä/kaakosta
Lämpötila 26°C
Kosteus 89%
Ilmanpaine 1012 hPa
Näkyvyys 10 km tai enemmän
Muutamia pilviä 1500 ft:n korkeudessa

METAR: TTPP 270500Z 11011KT 9999 FEW015 26/24 Q1012 NOSIG

Aika: 01:11 (05:11 UTC)

Sääennuste

Tämä raportti tehtiin 7 tuntia ja 11 minuuttia sitten, kello 22.00 UTC
Ennuste voimassa 27. päivästä klo 00 UTC - 27. päivään klo 24 UTC
Tuuli 5 kn idästä
Näkyvyys: 8000 m
Muutamia pilviä 1800 ft:n korkeudessa
Tulossa
27. päivästä klo 12 UTC - 27. päivään klo 14 UTC
Tuuli 15 kn idästä/kaakosta
Hajanaisia pilviä 2200 ft:n korkeudessa

TAF: TTPP 262200Z 2700/2724 09005KT 8000 FEW018 BECMG 2712/2714 11015KT SCT022

Säähavainnot ja -ennusteet yli 4000 lentoasemalta (METAR- ja TAF-raportit).

Käytössä olevat sääasemat on merkitty karttaan keltaisilla ja punaisilla pisteillä.

Aseta hiiri pisteen päälle nähdäksesi sääaseman nimen.

Klikkaa sitten nähdäksesi säähavainnot ja -ennusteet.

Kartan vaihtaminen: klikkaa mustalla rastilla varustettuja vihreitä pisteitä, niin voit zoomata sisään; viivalla varustettua vihreää pistettä, niin voit zoomata ulos tai vihreitä nuolia, niin pääset viereisille kartoille.


METAR-TAF: